Time;durP1;ratioP1;P1;durP2;ratioP2;P2;SDS_P1;SDS_P2;PMS_P1;PMS_P2;Temp;Humidity;BMP_temperature;BMP_pressure;BME280_temperature;BME280_humidity;BME280_pressure;Samples;Min_cycle;Max_cycle;Signal;HPM_P1;HPM_P2
2021/04/29 00:01:32;;;;;;;;;;;;;;;;;;5012896;28;20399;-72
2021/04/29 00:03:58;;;;;;;;;;;;;;;;;;5027352;28;19924;-74
2021/04/29 00:06:23;;;;;;;;;;;;;;;;;;5012871;28;20041;-72
2021/04/29 00:08:49;;;;;;;;;;;;;;;;;;5012707;28;19938;-74
2021/04/29 00:11:15;;;;;;;;;;;;;;;;;;5012730;28;19930;-73
2021/04/29 00:13:41;;;;;;;;;;;;;;;;;;5012490;28;19947;-73
2021/04/29 00:16:07;;;;;;;;;;;;;;;;;;5012741;28;19910;-74
2021/04/29 00:18:33;;;;;;;;;;;;;;;;;;5012596;28;20334;-74
2021/04/29 00:20:59;;;;;;;;;;;;;;;;;;5014563;28;19910;-73
2021/04/29 00:23:25;;;;;;;;;;;;;;;;;;5015848;28;19909;-74
2021/04/29 00:25:51;;;;;;;;;;;;;;;;;;5016110;28;19921;-73
2021/04/29 00:28:16;;;;;;;;;;;;;;;;;;5027413;28;19969;-75
2021/04/29 00:30:45;;;;;;;;;;;;;;;;;;5052118;28;19901;-74
2021/04/29 00:33:11;;;;;;;;;;;;;;;;;;5037455;28;19944;-72
2021/04/29 00:35:37;;;;;;;;;;;;;;;;;;5037237;28;19928;-73
2021/04/29 00:38:02;;;;;;;;;;;;;;;;;;5036691;28;19910;-75
2021/04/29 00:40:28;;;;;;;;;;;;;;;;;;5036714;28;19909;-75
2021/04/29 00:42:56;;;;;;;;;;;;;;;;;;5025230;28;19917;-74
2021/04/29 00:45:22;;;;;;;;;;;;;;;;;;5028349;28;20020;-73
2021/04/29 00:47:48;;;;;;;;;;;;;;;;;;5027720;28;20016;-73
2021/04/29 00:50:14;;;;;;;;;;;;;;;;;;5012217;28;19909;-75
2021/04/29 00:52:40;;;;;;;;;;;;;;;;;;5015361;28;19960;-72
2021/04/29 00:55:06;;;;;;;;;;;;;;;;;;5017474;28;19918;-74
2021/04/29 00:57:31;;;;;;;;;;;;;;;;;;5014701;28;19909;-75
2021/04/29 00:59:59;;;;;;;;;;;;;;;;;;5046575;28;19971;-74
2021/04/29 01:02:25;;;;;;;;;;;;;;;;;;5015551;28;19927;-75
2021/04/29 01:04:51;;;;;;;;;;;;;;;;;;5011000;28;19984;-75
2021/04/29 01:07:17;;;;;;;;;;;;;;;;;;5012330;28;19916;-73
2021/04/29 01:09:42;;;;;;;;;;;;;;;;;;5011632;28;19917;-74
2021/04/29 01:12:08;;;;;;;;;;;;;;;;;;5012035;28;20000;-73
2021/04/29 01:14:34;;;;;;;;;;;;;;;;;;5011709;28;19917;-74
2021/04/29 01:17:00;;;;;;;;;;;;;;;;;;5011149;28;19969;-75
2021/04/29 01:19:26;;;;;;;;;;;;;;;;;;5011645;28;20330;-75
2021/04/29 01:21:52;;;;;;;;;;;;;;;;;;5011822;28;19956;-72
2021/04/29 01:24:17;;;;;;;;;;;;;;;;;;5011692;28;19913;-73
2021/04/29 01:26:43;;;;;;;;;;;;;;;;;;5011061;28;19920;-73
2021/04/29 01:29:12;;;;;;;;;;;;;;;;;;5011183;28;20326;-73
2021/04/29 01:31:37;;;;;;;;;;;;;;;;;;5011743;28;20295;-73
2021/04/29 01:34:03;;;;;;;;;;;;;;;;;;5011242;28;19959;-74
2021/04/29 01:36:29;;;;;;;;;;;;;;;;;;5026615;28;20317;-74
2021/04/29 01:38:55;;;;;;;;;;;;;;;;;;5027020;28;19990;-74
2021/04/29 01:41:21;;;;;;;;;;;;;;;;;;5011327;28;19909;-73
2021/04/29 01:43:47;;;;;;;;;;;;;;;;;;5011668;28;20430;-73
2021/04/29 01:46:13;;;;;;;;;;;;;;;;;;5026678;28;19909;-73
2021/04/29 01:48:38;;;;;;;;;;;;;;;;;;5026433;28;19909;-72
2021/04/29 01:51:04;;;;;;;;;;;;;;;;;;5011142;28;20008;-73
2021/04/29 01:53:30;;;;;;;;;;;;;;;;;;5011102;28;19910;-72
2021/04/29 01:55:56;;;;;;;;;;;;;;;;;;5011161;28;19964;-74
2021/04/29 01:58:22;;;;;;;;;;;;;;;;;;5028448;28;19918;-73
2021/04/29 02:00:48;;;;;;;;;;;;;;;;;;5015413;28;19917;-73
2021/04/29 02:03:14;;;;;;;;;;;;;;;;;;5015300;28;19910;-72
2021/04/29 02:05:39;;;;;;;;;;;;;;;;;;5015153;28;20368;-72
2021/04/29 02:08:08;;;;;;;;;;;;;;;;;;5015090;28;19909;-71
2021/04/29 02:10:34;;;;;;;;;;;;;;;;;;5014190;28;19909;-71
2021/04/29 02:13:00;;;;;;;;;;;;;;;;;;5030968;28;19921;-72
2021/04/29 02:15:26;;;;;;;;;;;;;;;;;;5019593;23;19932;-70
2021/04/29 02:17:52;;;;;;;;;;;;;;;;;;5013917;28;20301;-71
2021/04/29 02:20:18;;;;;;;;;;;;;;;;;;5013607;28;19913;-69
2021/04/29 02:22:44;;;;;;;;;;;;;;;;;;4996221;28;19953;-69
2021/04/29 02:25:10;;;;;;;;;;;;;;;;;;5009214;28;19925;-70
2021/04/29 02:27:36;;;;;;;;;;;;;;;;;;5010518;28;20341;-71
2021/04/29 02:30:02;;;;;;;;;;;;;;;;;;5012756;22;19898;-68
2021/04/29 02:32:28;;;;;;;;;;;;;;;;;;5017852;28;19940;-68
2021/04/29 02:34:54;;;;;;;;;;;;;;;;;;5013304;28;20278;-68
2021/04/29 02:37:20;;;;;;;;;;;;;;;;;;5014548;28;19920;-68
2021/04/29 02:39:46;;;;;;;;;;;;;;;;;;5014583;28;20462;-67
2021/04/29 02:42:12;;;;;;;;;;;;;;;;;;5014602;28;20313;-68
2021/04/29 02:44:38;;;;;;;;;;;;;;;;;;5014207;28;19964;-68
2021/04/29 02:47:03;;;;;;;;;;;;;;;;;;5014421;28;19921;-68
2021/04/29 02:49:29;;;;;;;;;;;;;;;;;;5013966;28;20060;-68
2021/04/29 02:51:55;;;;;;;;;;;;;;;;;;5014576;28;19925;-68
2021/04/29 02:54:22;;;;;;;;;;;;;;;;;;5014455;28;20369;-69
2021/04/29 02:56:48;;;;;;;;;;;;;;;;;;5013976;28;19914;-69
2021/04/29 02:59:14;;;;;;;;;;;;;;;;;;5030340;28;19916;-68
2021/04/29 03:01:42;;;;;;;;;;;;;;;;;;5013610;28;19920;-68
2021/04/29 03:04:07;;;;;;;;;;;;;;;;;;5014595;28;20383;-68
2021/04/29 03:06:33;;;;;;;;;;;;;;;;;;5014093;28;19968;-68
2021/04/29 03:08:59;;;;;;;;;;;;;;;;;;5014064;28;19967;-69
2021/04/29 03:11:25;;;;;;;;;;;;;;;;;;5014293;28;20445;-68
2021/04/29 03:13:51;;;;;;;;;;;;;;;;;;5013881;28;19913;-68
2021/04/29 03:16:17;;;;;;;;;;;;;;;;;;5014123;28;19920;-68
2021/04/29 03:18:42;;;;;;;;;;;;;;;;;;5013909;28;20375;-70
2021/04/29 03:21:09;;;;;;;;;;;;;;;;;;5013410;28;19914;-67
2021/04/29 03:23:35;;;;;;;;;;;;;;;;;;5014249;28;20265;-66
2021/04/29 03:26:01;;;;;;;;;;;;;;;;;;5013212;28;19960;-68
2021/04/29 03:28:26;;;;;;;;;;;;;;;;;;5014079;28;19916;-67
2021/04/29 03:30:52;;;;;;;;;;;;;;;;;;5013228;28;19957;-67
2021/04/29 03:33:18;;;;;;;;;;;;;;;;;;5014079;28;19914;-67
2021/04/29 03:35:44;;;;;;;;;;;;;;;;;;5013149;28;20431;-67
2021/04/29 03:38:10;;;;;;;;;;;;;;;;;;5013300;28;19909;-67
2021/04/29 03:40:36;;;;;;;;;;;;;;;;;;5013498;28;19916;-67
2021/04/29 03:43:02;;;;;;;;;;;;;;;;;;5013319;28;19956;-67
2021/04/29 03:45:28;;;;;;;;;;;;;;;;;;5013115;28;19921;-68
2021/04/29 03:47:54;;;;;;;;;;;;;;;;;;5013826;28;19910;-67
2021/04/29 03:50:19;;;;;;;;;;;;;;;;;;5012846;28;19916;-67
2021/04/29 03:52:45;;;;;;;;;;;;;;;;;;5013471;28;20396;-67
2021/04/29 03:55:11;;;;;;;;;;;;;;;;;;5012884;28;19937;-67
2021/04/29 03:57:37;;;;;;;;;;;;;;;;;;5013168;28;19913;-67
2021/04/29 04:00:03;;;;;;;;;;;;;;;;;;5013063;28;20347;-68
2021/04/29 04:02:29;;;;;;;;;;;;;;;;;;5013045;28;19917;-68
2021/04/29 04:04:54;;;;;;;;;;;;;;;;;;5011733;28;19960;-68
2021/04/29 04:07:20;;;;;;;;;;;;;;;;;;5013094;28;19909;-68
2021/04/29 04:09:46;;;;;;;;;;;;;;;;;;5013045;28;19912;-68
2021/04/29 04:12:12;;;;;;;;;;;;;;;;;;5013217;28;20266;-68
2021/04/29 04:14:38;;;;;;;;;;;;;;;;;;5012635;28;19928;-66
2021/04/29 04:17:04;;;;;;;;;;;;;;;;;;5012755;28;19914;-67
2021/04/29 04:19:30;;;;;;;;;;;;;;;;;;5012152;28;19936;-67
2021/04/29 04:21:55;;;;;;;;;;;;;;;;;;5011508;28;20409;-68
2021/04/29 04:24:21;;;;;;;;;;;;;;;;;;5012553;28;19914;-67
2021/04/29 04:26:47;;;;;;;;;;;;;;;;;;5006159;28;20008;-67
2021/04/29 04:29:13;;;;;;;;;;;;;;;;;;5002264;28;19910;-67
2021/04/29 04:31:39;;;;;;;;;;;;;;;;;;5012070;28;19972;-67
2021/04/29 04:34:05;;;;;;;;;;;;;;;;;;5012362;28;19914;-67
2021/04/29 04:36:30;;;;;;;;;;;;;;;;;;5012024;28;19914;-67
2021/04/29 04:38:56;;;;;;;;;;;;;;;;;;5012387;28;20507;-67
2021/04/29 04:41:22;;;;;;;;;;;;;;;;;;5011808;28;19913;-67
2021/04/29 04:43:48;;;;;;;;;;;;;;;;;;4996678;28;20008;-66
2021/04/29 04:46:14;;;;;;;;;;;;;;;;;;5009090;28;19920;-67
2021/04/29 04:48:40;;;;;;;;;;;;;;;;;;5000082;28;20053;-66
2021/04/29 04:51:06;;;;;;;;;;;;;;;;;;5011145;28;19921;-67
2021/04/29 04:53:31;;;;;;;;;;;;;;;;;;5011700;28;19909;-67
2021/04/29 04:55:58;;;;;;;;;;;;;;;;;;5011248;28;19920;-69
2021/04/29 04:58:24;;;;;;;;;;;;;;;;;;5010623;28;19914;-68
2021/04/29 05:00:50;;;;;;;;;;;;;;;;;;5010467;28;19913;-68
2021/04/29 05:03:16;;;;;;;;;;;;;;;;;;5009792;28;19910;-68
2021/04/29 05:05:42;;;;;;;;;;;;;;;;;;5010761;28;19921;-68
2021/04/29 05:08:08;;;;;;;;;;;;;;;;;;5011015;28;19920;-67
2021/04/29 05:10:34;;;;;;;;;;;;;;;;;;5007460;28;20331;-65
2021/04/29 05:13:02;;;;;;;;;;;;;;;;;;5003850;28;19920;-65
2021/04/29 05:15:27;;;;;;;;;;;;;;;;;;5000918;28;20038;-66
2021/04/29 05:17:53;;;;;;;;;;;;;;;;;;5008981;28;19956;-65
2021/04/29 05:20:19;;;;;;;;;;;;;;;;;;5009422;28;20574;-66
2021/04/29 05:22:46;;;;;;;;;;;;;;;;;;5010549;28;20269;-66
2021/04/29 05:25:12;;;;;;;;;;;;;;;;;;5005424;28;19921;-65
2021/04/29 05:27:38;;;;;;;;;;;;;;;;;;5001368;28;19971;-65
2021/04/29 05:30:04;;;;;;;;;;;;;;;;;;5003969;28;20338;-65
2021/04/29 05:32:29;;;;;;;;;;;;;;;;;;5009972;28;19924;-65
2021/04/29 05:34:55;;;;;;;;;;;;;;;;;;5003487;28;20033;-66
2021/04/29 05:37:21;;;;;;;;;;;;;;;;;;5004015;28;20313;-65
2021/04/29 05:39:47;;;;;;;;;;;;;;;;;;5001420;28;19909;-65
2021/04/29 05:42:13;;;;;;;;;;;;;;;;;;5001607;28;20400;-65
2021/04/29 05:44:39;;;;;;;;;;;;;;;;;;5006596;28;19914;-66
2021/04/29 05:47:05;;;;;;;;;;;;;;;;;;5009299;28;19913;-64
2021/04/29 05:49:31;;;;;;;;;;;;;;;;;;5010744;28;19914;-65
2021/04/29 05:51:57;;;;;;;;;;;;;;;;;;5009960;28;19987;-64
2021/04/29 05:54:22;;;;;;;;;;;;;;;;;;5011179;28;19917;-67
2021/04/29 05:56:48;;;;;;;;;;;;;;;;;;5010905;28;19972;-64
2021/04/29 05:59:14;;;;;;;;;;;;;;;;;;5010331;28;20320;-66
2021/04/29 06:01:40;;;;;;;;;;;;;;;;;;5005724;28;19925;-69
2021/04/29 06:04:06;;;;;;;;;;;;;;;;;;5009759;28;19944;-66
2021/04/29 06:06:32;;;;;;;;;;;;;;;;;;5005484;28;19920;-68
2021/04/29 06:08:58;;;;;;;;;;;;;;;;;;5004666;28;19921;-68
2021/04/29 06:11:23;;;;;;;;;;;;;;;;;;5008656;28;20377;-68
2021/04/29 06:13:49;;;;;;;;;;;;;;;;;;5008863;28;19923;-67
2021/04/29 06:16:15;;;;;;;;;;;;;;;;;;5001775;28;19917;-67
2021/04/29 06:18:41;;;;;;;;;;;;;;;;;;5008388;28;20767;-66
2021/04/29 06:21:07;;;;;;;;;;;;;;;;;;5008410;28;20424;-67
2021/04/29 06:23:33;;;;;;;;;;;;;;;;;;5008963;28;19917;-67
2021/04/29 06:26:00;;;;;;;;;;;;;;;;;;5008815;28;20064;-68
2021/04/29 06:28:26;;;;;;;;;;;;;;;;;;5009310;28;19916;-68
2021/04/29 06:30:51;;;;;;;;;;;;;;;;;;5006281;28;19922;-69
2021/04/29 06:33:18;;;;;;;;;;;;;;;;;;5007070;28;20014;-67
2021/04/29 06:35:44;;;;;;;;;;;;;;;;;;5004536;28;19923;-67
2021/04/29 06:38:10;;;;;;;;;;;;;;;;;;5005761;28;20448;-68
2021/04/29 06:40:36;;;;;;;;;;;;;;;;;;5006359;28;19921;-67
2021/04/29 06:43:01;;;;;;;;;;;;;;;;;;5008079;28;19917;-67
2021/04/29 06:45:27;;;;;;;;;;;;;;;;;;5010355;28;19914;-66
2021/04/29 06:47:54;;;;;;;;;;;;;;;;;;5011785;28;19926;-68
2021/04/29 06:50:20;;;;;;;;;;;;;;;;;;5015811;28;20330;-68
2021/04/29 06:52:46;;;;;;;;;;;;;;;;;;5010243;28;19920;-68
2021/04/29 06:55:12;;;;;;;;;;;;;;;;;;5009404;28;20357;-67
2021/04/29 06:57:38;;;;;;;;;;;;;;;;;;5012945;28;19925;-67
2021/04/29 07:00:04;;;;;;;;;;;;;;;;;;5014753;28;19917;-67
2021/04/29 07:02:30;;;;;;;;;;;;;;;;;;5021294;28;19917;-67
2021/04/29 07:04:56;;;;;;;;;;;;;;;;;;5013248;28;19918;-67
2021/04/29 07:07:21;;;;;;;;;;;;;;;;;;5011503;28;20369;-67
2021/04/29 07:09:47;;;;;;;;;;;;;;;;;;5004004;28;19921;-67
2021/04/29 07:12:13;;;;;;;;;;;;;;;;;;5011760;28;19917;-68
2021/04/29 07:14:39;;;;;;;;;;;;;;;;;;5009982;28;20446;-67
2021/04/29 07:17:05;;;;;;;;;;;;;;;;;;5008766;28;19918;-66
2021/04/29 07:19:31;;;;;;;;;;;;;;;;;;5011533;28;20020;-66
2021/04/29 07:21:57;;;;;;;;;;;;;;;;;;5009453;28;19921;-66
2021/04/29 07:24:23;;;;;;;;;;;;;;;;;;5008694;28;20391;-66
2021/04/29 07:26:48;;;;;;;;;;;;;;;;;;5010355;28;19975;-66
2021/04/29 07:29:14;;;;;;;;;;;;;;;;;;5010616;28;19964;-66
2021/04/29 07:31:40;;;;;;;;;;;;;;;;;;5011737;28;20588;-67
2021/04/29 07:34:06;;;;;;;;;;;;;;;;;;5009378;28;19924;-66
2021/04/29 07:36:33;;;;;;;;;;;;;;;;;;5011436;28;19918;-67
2021/04/29 07:38:59;;;;;;;;;;;;;;;;;;5010846;28;20058;-67
2021/04/29 07:41:26;;;;;;;;;;;;;;;;;;5007136;28;19964;-67
2021/04/29 07:43:55;;;;;;;;;;;;;;;;;;5013758;28;19917;-67
2021/04/29 07:46:21;;;;;;;;;;;;;;;;;;5010340;28;19971;-66
2021/04/29 07:48:47;;;;;;;;;;;;;;;;;;5012717;28;19918;-67
2021/04/29 07:51:13;;;;;;;;;;;;;;;;;;5011532;28;20584;-67
2021/04/29 07:53:39;;;;;;;;;;;;;;;;;;5009908;28;19940;-66
2021/04/29 07:56:05;;;;;;;;;;;;;;;;;;5005638;28;19917;-64
2021/04/29 07:58:31;;;;;;;;;;;;;;;;;;5010926;28;19979;-67
2021/04/29 08:00:56;;;;;;;;;;;;;;;;;;5006851;28;20452;-66
2021/04/29 08:03:22;;;;;;;;;;;;;;;;;;5008591;28;19928;-66
2021/04/29 08:05:49;;;;;;;;;;;;;;;;;;5009498;28;19940;-66
2021/04/29 08:08:15;;;;;;;;;;;;;;;;;;5009208;28;19918;-67
2021/04/29 08:10:41;;;;;;;;;;;;;;;;;;5010172;28;19940;-67
2021/04/29 08:13:07;;;;;;;;;;;;;;;;;;5006674;28;20004;-67
2021/04/29 08:15:33;;;;;;;;;;;;;;;;;;5010918;28;20480;-67
2021/04/29 08:17:59;;;;;;;;;;;;;;;;;;5008132;28;19910;-67
2021/04/29 08:20:24;;;;;;;;;;;;;;;;;;5017184;28;19913;-66
2021/04/29 08:22:50;;;;;;;;;;;;;;;;;;5008719;28;19909;-67
2021/04/29 08:25:16;;;;;;;;;;;;;;;;;;5001682;28;20576;-67
2021/04/29 08:27:42;;;;;;;;;;;;;;;;;;5004911;28;19917;-69
2021/04/29 08:30:08;;;;;;;;;;;;;;;;;;5009791;28;19917;-68
2021/04/29 08:32:34;;;;;;;;;;;;;;;;;;5010547;28;20385;-67
2021/04/29 08:35:00;;;;;;;;;;;;;;;;;;5010269;28;20336;-68
2021/04/29 08:37:26;;;;;;;;;;;;;;;;;;5003809;28;19965;-68
2021/04/29 08:39:51;;;;;;;;;;;;;;;;;;5001093;28;20297;-68
2021/04/29 08:42:17;;;;;;;;;;;;;;;;;;5004111;28;19918;-69
2021/04/29 08:44:43;;;;;;;;;;;;;;;;;;5009290;28;19924;-67
2021/04/29 08:47:09;;;;;;;;;;;;;;;;;;5009597;28;19917;-66
2021/04/29 08:49:35;;;;;;;;;;;;;;;;;;5006623;28;19963;-67
2021/04/29 08:52:01;;;;;;;;;;;;;;;;;;5009689;28;20044;-67
2021/04/29 08:54:27;;;;;;;;;;;;;;;;;;5008868;28;19921;-66
2021/04/29 08:56:52;;;;;;;;;;;;;;;;;;5009809;28;19910;-66
2021/04/29 08:59:18;;;;;;;;;;;;;;;;;;5008950;28;19917;-65
2021/04/29 09:01:44;;;;;;;;;;;;;;;;;;5007340;28;20349;-67
2021/04/29 09:04:10;;;;;;;;;;;;;;;;;;5009170;28;19936;-66
2021/04/29 09:06:36;;;;;;;;;;;;;;;;;;5008788;28;20013;-67
2021/04/29 09:09:02;;;;;;;;;;;;;;;;;;5009108;28;19917;-67
2021/04/29 09:11:28;;;;;;;;;;;;;;;;;;5009292;28;19917;-66
2021/04/29 09:13:54;;;;;;;;;;;;;;;;;;5009386;28;19959;-66
2021/04/29 09:16:20;;;;;;;;;;;;;;;;;;5008142;28;19967;-66
2021/04/29 09:18:47;;;;;;;;;;;;;;;;;;5003273;28;20310;-66
2021/04/29 09:21:14;;;;;;;;;;;;;;;;;;4991457;28;19949;-67
2021/04/29 09:23:40;;;;;;;;;;;;;;;;;;4997739;28;19954;-66
2021/04/29 09:26:07;;;;;;;;;;;;;;;;;;4998341;28;19993;-68
2021/04/29 09:28:33;;;;;;;;;;;;;;;;;;5005273;28;20349;-67
2021/04/29 09:30:58;;;;;;;;;;;;;;;;;;5008532;28;20000;-67
2021/04/29 09:33:24;;;;;;;;;;;;;;;;;;5002416;28;20242;-67
2021/04/29 09:35:50;;;;;;;;;;;;;;;;;;4998996;28;19968;-67
2021/04/29 09:38:16;;;;;;;;;;;;;;;;;;5003712;28;19918;-66
2021/04/29 09:40:44;;;;;;;;;;;;;;;;;;5006632;28;19918;-66
2021/04/29 09:43:09;;;;;;;;;;;;;;;;;;5001475;28;19913;-66
2021/04/29 09:45:37;;;;;;;;;;;;;;;;;;5003398;28;19910;-67
2021/04/29 09:48:03;;;;;;;;;;;;;;;;;;5017202;23;19925;-73
2021/04/29 09:50:29;;;;;;;;;;;;;;;;;;5018994;28;20402;-75
2021/04/29 09:52:55;;;;;;;;;;;;;;;;;;5014078;28;19913;-74
2021/04/29 09:55:21;;;;;;;;;;;;;;;;;;5005108;28;19918;-74
2021/04/29 09:57:48;;;;;;;;;;;;;;;;;;5014223;28;19959;-73
2021/04/29 10:00:14;;;;;;;;;;;;;;;;;;5007611;28;19976;-75
2021/04/29 10:02:40;;;;;;;;;;;;;;;;;;5013111;28;20367;-75
2021/04/29 10:05:06;;;;;;;;;;;;;;;;;;5012847;28;19972;-76
2021/04/29 10:07:31;;;;;;;;;;;;;;;;;;5011971;28;19918;-73
2021/04/29 10:09:57;;;;;;;;;;;;;;;;;;5011560;28;20028;-73
2021/04/29 10:12:23;;;;;;;;;;;;;;;;;;5014863;28;19949;-73
2021/04/29 10:14:49;;;;;;;;;;;;;;;;;;5018207;28;20383;-74
2021/04/29 10:17:15;;;;;;;;;;;;;;;;;;5013197;28;19976;-75
2021/04/29 10:19:41;;;;;;;;;;;;;;;;;;5015914;28;19924;-72
2021/04/29 10:22:09;;;;;;;;;;;;;;;;;;5018502;28;20000;-73
2021/04/29 10:24:36;;;;;;;;;;;;;;;;;;5017636;28;19914;-77
2021/04/29 10:27:02;;;;;;;;;;;;;;;;;;5015759;28;19913;-76
2021/04/29 10:29:27;;;;;;;;;;;;;;;;;;5013269;28;20562;-75
2021/04/29 10:31:53;;;;;;;;;;;;;;;;;;5016757;28;19924;-75
2021/04/29 10:34:19;;;;;;;;;;;;;;;;;;5014674;28;19968;-75
2021/04/29 10:36:46;;;;;;;;;;;;;;;;;;5015777;28;19913;-76
2021/04/29 10:39:12;;;;;;;;;;;;;;;;;;5016719;28;19921;-75
2021/04/29 10:41:38;;;;;;;;;;;;;;;;;;5015293;28;19910;-72
2021/04/29 10:44:04;;;;;;;;;;;;;;;;;;5015297;28;19936;-75
2021/04/29 10:46:30;;;;;;;;;;;;;;;;;;5015217;28;19996;-77
2021/04/29 10:48:55;;;;;;;;;;;;;;;;;;5016213;28;19917;-76
2021/04/29 10:51:21;;;;;;;;;;;;;;;;;;5018058;28;20322;-75
2021/04/29 10:53:50;;;;;;;;;;;;;;;;;;5016175;28;20368;-76
2021/04/29 10:56:16;;;;;;;;;;;;;;;;;;5014961;28;20014;-74
2021/04/29 10:58:42;;;;;;;;;;;;;;;;;;5017348;28;20294;-73
2021/04/29 11:01:08;;;;;;;;;;;;;;;;;;5015357;28;19914;-75
2021/04/29 11:03:34;;;;;;;;;;;;;;;;;;5014504;28;19921;-75
2021/04/29 11:05:59;;;;;;;;;;;;;;;;;;5017662;28;19913;-74
2021/04/29 11:08:28;;;;;;;;;;;;;;;;;;5016658;28;20403;-74
2021/04/29 11:10:54;;;;;;;;;;;;;;;;;;5018648;28;19910;-75
2021/04/29 11:13:20;;;;;;;;;;;;;;;;;;5016627;28;20015;-74
2021/04/29 11:15:45;;;;;;;;;;;;;;;;;;5017423;28;19944;-75
2021/04/29 11:18:11;;;;;;;;;;;;;;;;;;5015753;28;19914;-75
2021/04/29 11:20:37;;;;;;;;;;;;;;;;;;5007990;28;19910;-74
2021/04/29 11:23:03;;;;;;;;;;;;;;;;;;5025038;28;19910;-75
2021/04/29 11:25:29;;;;;;;;;;;;;;;;;;5023575;28;19945;-75
2021/04/29 11:27:55;;;;;;;;;;;;;;;;;;5021780;28;19968;-75
2021/04/29 11:30:24;;;;;;;;;;;;;;;;;;5012842;28;19913;-73
2021/04/29 11:32:50;;;;;;;;;;;;;;;;;;5017480;28;19913;-76
2021/04/29 11:35:16;;;;;;;;;;;;;;;;;;5006987;28;20406;-74
2021/04/29 11:37:42;;;;;;;;;;;;;;;;;;5007214;28;19921;-74
2021/04/29 11:40:08;;;;;;;;;;;;;;;;;;5014204;28;20402;-76
2021/04/29 11:42:34;;;;;;;;;;;;;;;;;;5015777;28;20060;-74
2021/04/29 11:45:02;;;;;;;;;;;;;;;;;;5015353;28;19909;-74
2021/04/29 11:47:30;;;;;;;;;;;;;;;;;;5007540;28;19920;-74
2021/04/29 11:49:56;;;;;;;;;;;;;;;;;;5015129;28;19923;-76
2021/04/29 11:52:23;;;;;;;;;;;;;;;;;;5013487;28;20350;-75
2021/04/29 11:54:49;;;;;;;;;;;;;;;;;;5013861;28;20386;-75
2021/04/29 11:57:15;;;;;;;;;;;;;;;;;;5014271;28;19921;-74
2021/04/29 11:59:43;;;;;;;;;;;;;;;;;;5016422;28;19946;-75
2021/04/29 12:02:09;;;;;;;;;;;;;;;;;;5013990;28;19909;-74
2021/04/29 12:04:35;;;;;;;;;;;;;;;;;;5010909;28;19913;-74
2021/04/29 12:07:02;;;;;;;;;;;;;;;;;;5008691;28;19939;-76
2021/04/29 12:09:28;;;;;;;;;;;;;;;;;;5013243;28;19921;-73
2021/04/29 12:11:54;;;;;;;;;;;;;;;;;;5013617;28;19909;-75
2021/04/29 12:14:20;;;;;;;;;;;;;;;;;;5013181;28;19918;-75
2021/04/29 12:16:45;;;;;;;;;;;;;;;;;;5012338;28;19914;-72
2021/04/29 12:19:12;;;;;;;;;;;;;;;;;;5016982;28;19910;-73
2021/04/29 12:21:39;;;;;;;;;;;;;;;;;;5020022;28;19956;-74
2021/04/29 12:24:05;;;;;;;;;;;;;;;;;;5010958;28;19921;-76
2021/04/29 12:26:30;;;;;;;;;;;;;;;;;;5001020;28;19917;-75
2021/04/29 12:28:56;;;;;;;;;;;;;;;;;;5011137;28;19913;-75
2021/04/29 12:31:22;;;;;;;;;;;;;;;;;;5012582;28;19914;-74
2021/04/29 12:33:48;;;;;;;;;;;;;;;;;;5013730;28;20473;-74
2021/04/29 12:36:14;;;;;;;;;;;;;;;;;;5004504;28;19985;-75
2021/04/29 12:38:40;;;;;;;;;;;;;;;;;;5013467;28;20399;-75
2021/04/29 12:41:06;;;;;;;;;;;;;;;;;;5007746;28;19918;-75
2021/04/29 12:43:34;;;;;;;;;;;;;;;;;;5012013;28;19932;-75
2021/04/29 12:46:02;;;;;;;;;;;;;;;;;;5012672;28;20015;-75
2021/04/29 12:48:30;;;;;;;;;;;;;;;;;;5012628;28;20000;-75
2021/04/29 12:50:56;;;;;;;;;;;;;;;;;;5009460;28;19933;-74
2021/04/29 12:53:21;;;;;;;;;;;;;;;;;;5009837;28;20339;-75
2021/04/29 12:55:47;;;;;;;;;;;;;;;;;;5009450;28;19924;-75
2021/04/29 12:58:17;;;;;;;;;;;;;;;;;;5013188;28;20064;-75
2021/04/29 13:00:43;;;;;;;;;;;;;;;;;;5010226;28;20354;-76
2021/04/29 13:03:09;;;;;;;;;;;;;;;;;;5010311;28;20406;-75
2021/04/29 13:05:34;;;;;;;;;;;;;;;;;;5009877;28;19917;-76
2021/04/29 13:08:00;;;;;;;;;;;;;;;;;;5010146;28;19959;-75
2021/04/29 13:10:26;;;;;;;;;;;;;;;;;;5010695;28;20303;-76
2021/04/29 13:12:52;;;;;;;;;;;;;;;;;;5008813;28;19914;-76
2021/04/29 13:15:18;;;;;;;;;;;;;;;;;;5010701;28;19917;-77
2021/04/29 13:17:44;;;;;;;;;;;;;;;;;;5010089;28;19913;-74
2021/04/29 13:20:10;;;;;;;;;;;;;;;;;;5010654;28;19968;-76
2021/04/29 13:22:36;;;;;;;;;;;;;;;;;;5009779;28;20103;-73
2021/04/29 13:25:02;;;;;;;;;;;;;;;;;;5010902;28;19953;-75
2021/04/29 13:27:28;;;;;;;;;;;;;;;;;;5008823;28;19949;-74
2021/04/29 13:29:54;;;;;;;;;;;;;;;;;;4997219;28;19910;-74
2021/04/29 13:32:19;;;;;;;;;;;;;;;;;;5007365;28;19910;-74
2021/04/29 13:34:46;;;;;;;;;;;;;;;;;;5009085;28;19917;-74
2021/04/29 13:37:12;;;;;;;;;;;;;;;;;;5010196;28;19909;-73
2021/04/29 13:39:38;;;;;;;;;;;;;;;;;;5010159;28;20338;-73
2021/04/29 13:42:04;;;;;;;;;;;;;;;;;;5010768;28;19917;-74
2021/04/29 13:44:30;;;;;;;;;;;;;;;;;;5010867;28;19910;-75
2021/04/29 13:46:56;;;;;;;;;;;;;;;;;;5008473;28;19913;-73
2021/04/29 13:49:22;;;;;;;;;;;;;;;;;;5007814;28;20307;-76
2021/04/29 13:51:48;;;;;;;;;;;;;;;;;;5010109;28;19967;-75
2021/04/29 13:54:14;;;;;;;;;;;;;;;;;;5007572;28;19972;-74
2021/04/29 13:56:40;;;;;;;;;;;;;;;;;;5008995;28;19921;-75
2021/04/29 13:59:06;;;;;;;;;;;;;;;;;;5011065;28;19917;-75
2021/04/29 14:01:32;;;;;;;;;;;;;;;;;;5007788;28;19921;-75
2021/04/29 14:03:58;;;;;;;;;;;;;;;;;;5012649;28;19947;-75
2021/04/29 14:06:24;;;;;;;;;;;;;;;;;;5011655;28;19909;-76
2021/04/29 14:08:52;;;;;;;;;;;;;;;;;;5009892;28;20132;-75
2021/04/29 14:11:18;;;;;;;;;;;;;;;;;;5010007;28;19918;-76
2021/04/29 14:13:46;;;;;;;;;;;;;;;;;;5010340;28;20382;-75
2021/04/29 14:16:12;;;;;;;;;;;;;;;;;;5008034;28;19929;-75
2021/04/29 14:18:38;;;;;;;;;;;;;;;;;;5040604;22;19925;-72
2021/04/29 14:21:04;;;;;;;;;;;;;;;;;;5039511;28;20266;-70
2021/04/29 14:23:30;;;;;;;;;;;;;;;;;;5035477;28;19967;-70
2021/04/29 14:25:56;;;;;;;;;;;;;;;;;;5033151;28;19917;-70
2021/04/29 14:28:22;;;;;;;;;;;;;;;;;;5033932;28;20369;-71
2021/04/29 14:30:47;;;;;;;;;;;;;;;;;;5032327;28;19965;-71
2021/04/29 14:33:14;;;;;;;;;;;;;;;;;;5035232;28;19913;-69
2021/04/29 14:35:40;;;;;;;;;;;;;;;;;;5033952;28;19933;-69
2021/04/29 14:38:05;;;;;;;;;;;;;;;;;;5034597;28;20269;-68
2021/04/29 14:40:31;;;;;;;;;;;;;;;;;;5033025;28;19909;-70
2021/04/29 14:42:57;;;;;;;;;;;;;;;;;;5031989;28;19913;-70
2021/04/29 14:45:26;;;;;;;;;;;;;;;;;;5033263;28;19936;-70
2021/04/29 14:47:52;;;;;;;;;;;;;;;;;;5032379;28;19914;-68
2021/04/29 14:50:18;;;;;;;;;;;;;;;;;;5030954;28;20257;-69
2021/04/29 14:52:44;;;;;;;;;;;;;;;;;;5031480;28;19910;-69
2021/04/29 14:55:09;;;;;;;;;;;;;;;;;;5030650;28;19921;-69
2021/04/29 14:57:38;;;;;;;;;;;;;;;;;;5029872;28;19924;-70
2021/04/29 15:00:04;;;;;;;;;;;;;;;;;;5027497;28;19924;-68
2021/04/29 15:02:31;;;;;;;;;;;;;;;;;;5029173;28;19913;-68
2021/04/29 15:04:57;;;;;;;;;;;;;;;;;;5027837;28;20299;-69
2021/04/29 15:07:26;;;;;;;;;;;;;;;;;;5037162;28;19913;-69
2021/04/29 15:09:52;;;;;;;;;;;;;;;;;;5037390;28;19913;-70
2021/04/29 15:12:18;;;;;;;;;;;;;;;;;;5030113;28;19913;-71
2021/04/29 15:14:44;;;;;;;;;;;;;;;;;;5032246;28;19928;-70
2021/04/29 15:17:10;;;;;;;;;;;;;;;;;;5028077;28;19955;-71
2021/04/29 15:19:36;;;;;;;;;;;;;;;;;;5033624;28;19921;-71
2021/04/29 15:22:01;;;;;;;;;;;;;;;;;;5031848;28;19928;-68
2021/04/29 15:24:27;;;;;;;;;;;;;;;;;;5032865;28;20055;-70
2021/04/29 15:26:53;;;;;;;;;;;;;;;;;;5034932;28;19928;-70
2021/04/29 15:29:19;;;;;;;;;;;;;;;;;;5025272;28;20016;-71
2021/04/29 15:31:45;;;;;;;;;;;;;;;;;;5033819;28;19919;-67
2021/04/29 15:34:13;;;;;;;;;;;;;;;;;;5033426;28;20033;-71
2021/04/29 15:36:39;;;;;;;;;;;;;;;;;;5033671;28;19916;-68
2021/04/29 15:39:05;;;;;;;;;;;;;;;;;;5027816;28;19917;-68
2021/04/29 15:41:31;;;;;;;;;;;;;;;;;;5027360;28;20015;-68
2021/04/29 15:43:57;;;;;;;;;;;;;;;;;;5033826;28;19913;-69
2021/04/29 15:46:22;;;;;;;;;;;;;;;;;;5034030;28;19913;-69
2021/04/29 15:48:48;;;;;;;;;;;;;;;;;;5035330;28;19914;-71
2021/04/29 15:51:17;;;;;;;;;;;;;;;;;;5034806;28;19925;-71
2021/04/29 15:53:43;;;;;;;;;;;;;;;;;;5035569;28;19952;-69
2021/04/29 15:56:09;;;;;;;;;;;;;;;;;;5034886;28;20377;-69
2021/04/29 15:58:35;;;;;;;;;;;;;;;;;;5031482;28;20000;-70
2021/04/29 16:01:01;;;;;;;;;;;;;;;;;;5037620;28;19917;-69
2021/04/29 16:03:27;;;;;;;;;;;;;;;;;;5041446;28;20085;-69
2021/04/29 16:05:53;;;;;;;;;;;;;;;;;;5034136;28;20055;-70
2021/04/29 16:08:18;;;;;;;;;;;;;;;;;;5033974;28;19940;-71
2021/04/29 16:10:44;;;;;;;;;;;;;;;;;;5033612;28;19913;-69
2021/04/29 16:13:10;;;;;;;;;;;;;;;;;;5030123;28;19920;-68
2021/04/29 16:15:36;;;;;;;;;;;;;;;;;;5032402;28;20433;-69
2021/04/29 16:18:02;;;;;;;;;;;;;;;;;;5031985;28;19917;-68
2021/04/29 16:20:29;;;;;;;;;;;;;;;;;;5029232;28;19921;-70
2021/04/29 16:22:55;;;;;;;;;;;;;;;;;;5031698;28;19915;-70
2021/04/29 16:25:21;;;;;;;;;;;;;;;;;;5031591;28;19909;-69
2021/04/29 16:27:47;;;;;;;;;;;;;;;;;;5029920;28;19913;-69
2021/04/29 16:30:13;;;;;;;;;;;;;;;;;;5024845;28;19964;-67
2021/04/29 16:32:39;;;;;;;;;;;;;;;;;;5028980;28;20442;-68
2021/04/29 16:35:05;;;;;;;;;;;;;;;;;;5023800;28;19917;-69
2021/04/29 16:37:30;;;;;;;;;;;;;;;;;;5020788;28;19924;-69